SBUL/UDI METAR and TAF weather

Enter ICAO airport designator
Station Type Date Time Source
SBUL METAR 2018/12/12 11:00 UTC NOAA

SBUL 121100Z 03012KT CAVOK 24/17 Q1023


Station Type Date Time Source
SBUL Decoded METAR 2018/12/12 11:00 UTC NOAA

Uberlandia , Brazil (SBUL) 18-53S 048-14W
Dec 12, 2018 - 06:00 AM EST / 2018.12.12 1100 UTC
Wind: from the NNE (030 degrees) at 14 MPH (12 KT):0
Visibility: greater than 7 mile(s):0
Temperature: 75 F (24 C)
Dew Point: 62 F (17 C)
Relative Humidity: 64%
Pressure (altimeter): 30.21 in. Hg (1023 hPa)
ob: SBUL 121100Z 03012KT CAVOK 24/17 Q1023
cycle: 11

Station Type Date Time Source
SBUL TAF 2018/12/12 12:33 UTC NOAA

TAF TAF SBUL 120922Z 1212/1224 04010KT CAVOK TN23/1212Z TX29/1218Z
BECMG 1212/1214 03008KT SCT035 PROB30 1219/1221 FEW045 FEW050TCU
RMK PGQ


Example: see airport list